Flight Briefing for CPX798

Departure Arrival
Arturo Merino Benitez International Airport (SCEL)
Click to view FAA NOTAMS
Miami International Airport (KMIA)
Click to view FAA NOTAMS
Departure Time Arrival Time
N/A N/A
Aircraft Distance
B747-400BCF 3625nm
Departure METAR Arrival METAR
SCEL 200900Z 00000KT 8000 NSC 10/01 Q1014 NOSIG KMIA 200853Z 33007KT 10SM BKN004 BKN031 OVC050 18/18 A2995 RMK AO2 RAE02 SLP143 P0000 60000 T01830183 56014
Suggested Route
IKBIX Y183 PEAKY DVALL CURSO5


View recent IFR Routes data
Notes



Charts and Procedures

Charts for SCEL
No chart available
Charts for KMIA
No chart available

Windy.com Weather Map